createdAt,value
2023-03-29T00:02:03.067Z,54.16
2023-03-29T00:04:29.517Z,54.88
2023-03-29T00:06:55.951Z,54.43
2023-03-29T00:09:22.353Z,55.63
2023-03-29T00:11:48.726Z,55.96
2023-03-29T00:14:15.060Z,53.65
2023-03-29T00:16:41.515Z,55.09
2023-03-29T00:19:07.913Z,53.57
2023-03-29T00:21:34.237Z,53.42
2023-03-29T00:24:00.582Z,53.63
2023-03-29T00:26:26.952Z,52.35
2023-03-29T00:28:53.290Z,54.50
2023-03-29T00:31:19.757Z,55.26
2023-03-29T00:33:46.164Z,55.75
2023-03-29T00:36:12.547Z,56.90
2023-03-29T00:38:38.921Z,57.26
2023-03-29T00:41:05.320Z,56.74
2023-03-29T00:43:31.670Z,57.47
2023-03-29T00:45:58.063Z,58.05
2023-03-29T00:48:24.460Z,58.85
2023-03-29T00:50:50.808Z,58.66
2023-03-29T00:53:17.147Z,59.43
2023-03-29T00:55:43.520Z,58.74
2023-03-29T00:58:09.877Z,58.63
2023-03-29T01:00:36.233Z,58.52
2023-03-29T01:03:02.675Z,59.25
2023-03-29T01:05:29.067Z,60.15
2023-03-29T01:07:55.445Z,59.74
2023-03-29T01:10:21.803Z,60.23
2023-03-29T01:12:48.183Z,60.68
2023-03-29T01:15:14.526Z,60.25
2023-03-29T01:17:40.877Z,60.25
2023-03-29T01:20:07.256Z,61.16
2023-03-29T01:22:33.643Z,61.21
2023-03-29T01:25:00.053Z,61.77
2023-03-29T01:27:26.452Z,62.17
2023-03-29T01:29:52.811Z,62.64
2023-03-29T01:32:19.160Z,62.61
2023-03-29T01:34:45.536Z,63.23
2023-03-29T01:37:11.938Z,63.32
2023-03-29T01:39:38.290Z,63.13
2023-03-29T01:42:04.669Z,62.61
2023-03-29T01:44:31.058Z,61.88
2023-03-29T01:46:57.440Z,60.91
2023-03-29T01:49:23.786Z,60.32
2023-03-29T01:51:50.160Z,61.08
2023-03-29T01:54:16.509Z,61.94
2023-03-29T01:56:42.931Z,61.44
2023-03-29T01:59:09.349Z,61.20
2023-03-29T02:01:35.728Z,61.41
2023-03-29T02:04:02.125Z,60.21
2023-03-29T02:06:28.516Z,61.83
2023-03-29T02:08:54.859Z,60.79
2023-03-29T02:11:21.191Z,61.20
2023-03-29T02:13:47.537Z,62.06
2023-03-29T02:16:13.964Z,60.67
2023-03-29T02:18:40.348Z,60.49
2023-03-29T02:21:06.728Z,61.55
2023-03-29T02:23:33.082Z,59.60
2023-03-29T02:25:59.506Z,57.90
2023-03-29T02:28:25.865Z,57.60
2023-03-29T02:30:52.228Z,57.92
2023-03-29T02:33:18.592Z,58.64
2023-03-29T02:35:44.998Z,57.86
2023-03-29T02:38:11.390Z,58.67
2023-03-29T02:40:37.832Z,58.91
2023-03-29T02:43:04.230Z,58.57
2023-03-29T02:45:30.644Z,59.32
2023-03-29T02:47:57.085Z,59.11
2023-03-29T02:50:23.481Z,58.53
2023-03-29T02:52:49.830Z,60.26
2023-03-29T02:55:16.202Z,58.38
2023-03-29T02:57:42.547Z,59.54
2023-03-29T03:00:08.931Z,59.61
2023-03-29T03:02:35.404Z,60.27
2023-03-29T03:05:01.827Z,59.87
2023-03-29T03:07:28.159Z,60.09
2023-03-29T03:09:54.499Z,60.59
2023-03-29T03:12:20.892Z,60.91
2023-03-29T03:14:47.290Z,59.44
2023-03-29T03:17:13.687Z,59.54
2023-03-29T03:19:40.054Z,60.33
2023-03-29T03:22:06.412Z,60.31
2023-03-29T03:24:32.816Z,59.78
2023-03-29T03:26:59.183Z,59.66
2023-03-29T03:29:25.536Z,59.53
2023-03-29T03:31:53.289Z,58.64
2023-03-29T03:34:20.340Z,57.81
2023-03-29T03:36:46.731Z,59.01
2023-03-29T03:39:13.084Z,59.78
2023-03-29T03:41:39.464Z,60.22
2023-03-29T03:44:05.844Z,60.20
2023-03-29T03:46:32.276Z,60.59
2023-03-29T03:48:58.661Z,58.86
2023-03-29T03:51:25.010Z,58.79
2023-03-29T03:53:51.384Z,58.15
2023-03-29T03:56:17.764Z,59.98
2023-03-29T03:58:44.218Z,59.99
2023-03-29T04:01:10.606Z,59.39
2023-03-29T04:03:37.064Z,55.63
2023-03-29T04:06:03.502Z,56.41
2023-03-29T04:08:29.847Z,56.01
2023-03-29T04:10:56.191Z,55.43
2023-03-29T04:13:22.565Z,56.82
2023-03-29T04:15:48.950Z,57.31
2023-03-29T04:18:15.426Z,57.11
2023-03-29T04:20:41.835Z,56.49
2023-03-29T04:23:08.176Z,57.52
2023-03-29T04:25:34.565Z,57.03
2023-03-29T04:28:00.911Z,56.96
2023-03-29T04:30:27.258Z,57.22
2023-03-29T04:32:53.690Z,58.72
2023-03-29T04:35:20.126Z,58.79
2023-03-29T04:37:46.507Z,58.47
2023-03-29T04:40:12.896Z,59.06
2023-03-29T04:42:39.236Z,59.64
2023-03-29T04:45:05.609Z,58.76
2023-03-29T04:47:32.065Z,58.74
2023-03-29T04:49:58.498Z,59.00
2023-03-29T04:52:24.952Z,59.73
2023-03-29T04:54:51.376Z,59.62
2023-03-29T04:57:17.778Z,59.80
2023-03-29T04:59:44.253Z,59.75
2023-03-29T05:02:10.754Z,60.57
2023-03-29T05:04:37.296Z,59.56
2023-03-29T05:07:03.660Z,59.50
2023-03-29T05:09:29.985Z,59.65
2023-03-29T05:11:56.310Z,59.61
2023-03-29T05:14:22.695Z,59.31
2023-03-29T05:16:49.047Z,59.83
2023-03-29T05:19:15.426Z,60.62
2023-03-29T05:21:43.741Z,61.17
2023-03-29T05:24:11.808Z,60.47
2023-03-29T05:26:38.161Z,60.26
2023-03-29T05:29:04.603Z,59.63
2023-03-29T05:31:31.034Z,59.56
2023-03-29T05:33:57.429Z,58.97
2023-03-29T05:36:23.775Z,59.31
2023-03-29T05:38:50.150Z,59.33
2023-03-29T05:41:16.500Z,59.69
2023-03-29T05:43:42.868Z,59.85
2023-03-29T05:46:09.288Z,59.60
2023-03-29T05:48:35.702Z,60.81
2023-03-29T05:51:02.289Z,60.99
2023-03-29T05:53:28.752Z,59.53
2023-03-29T05:55:55.125Z,60.38
2023-03-29T05:58:21.584Z,60.24
2023-03-29T06:00:48.075Z,60.25
2023-03-29T06:03:20.840Z,60.84
2023-03-29T06:05:49.652Z,60.98
2023-03-29T06:08:16.288Z,61.51
2023-03-29T06:10:42.689Z,61.90
2023-03-29T06:13:09.032Z,60.91
2023-03-29T06:15:35.379Z,61.57
2023-03-29T06:18:01.820Z,62.42
2023-03-29T06:20:28.185Z,61.20
2023-03-29T06:22:54.532Z,61.10
2023-03-29T06:25:20.908Z,61.59
2023-03-29T06:27:47.302Z,61.68
2023-03-29T06:30:13.651Z,60.85
2023-03-29T06:32:40.088Z,61.07
2023-03-29T06:35:06.517Z,61.60
2023-03-29T06:37:32.952Z,60.94
2023-03-29T06:39:59.302Z,61.00
2023-03-29T06:42:25.748Z,61.68
2023-03-29T06:44:52.124Z,60.96
2023-03-29T06:47:18.497Z,59.94
2023-03-29T06:49:44.887Z,60.61
2023-03-29T06:52:11.269Z,60.69
2023-03-29T06:54:37.621Z,60.75
2023-03-29T06:57:04.025Z,60.65
2023-03-29T06:59:30.394Z,60.72
2023-03-29T07:01:56.770Z,60.37
2023-03-29T07:04:23.280Z,60.31
2023-03-29T07:06:49.875Z,60.01
2023-03-29T07:09:17.162Z,59.75
2023-03-29T07:11:45.345Z,60.34
2023-03-29T07:14:11.687Z,60.40
2023-03-29T07:16:38.080Z,60.16
2023-03-29T07:19:04.467Z,59.55
2023-03-29T07:21:30.811Z,60.71
2023-03-29T07:23:57.225Z,61.22
2023-03-29T07:26:28.914Z,61.31
2023-03-29T07:28:56.408Z,61.01
2023-03-29T07:31:22.768Z,61.39
2023-03-29T07:33:49.243Z,60.92
2023-03-29T07:36:15.826Z,60.90
2023-03-29T07:38:42.239Z,61.29
2023-03-29T07:41:08.584Z,60.87
2023-03-29T07:43:34.974Z,60.43
2023-03-29T07:46:01.357Z,60.95
2023-03-29T07:48:27.751Z,60.18
2023-03-29T07:50:54.209Z,60.59
2023-03-29T07:53:20.702Z,60.06
2023-03-29T07:55:47.576Z,60.58
2023-03-29T07:58:14.223Z,59.46
2023-03-29T08:00:40.657Z,58.89
2023-03-29T08:03:07.109Z,59.34
2023-03-29T08:05:40.803Z,57.94
2023-03-29T08:08:07.978Z,60.20
2023-03-29T08:10:34.397Z,58.23
2023-03-29T08:13:00.771Z,59.15
2023-03-29T08:15:27.172Z,58.86
2023-03-29T08:17:53.699Z,57.59
2023-03-29T08:20:20.078Z,57.77
2023-03-29T08:22:46.427Z,57.26
2023-03-29T08:25:12.765Z,56.32
2023-03-29T08:27:39.125Z,56.52
2023-03-29T08:30:05.657Z,56.30
2023-03-29T08:32:32.090Z,55.30
2023-03-29T08:34:58.439Z,55.36
2023-03-29T08:37:24.775Z,56.95
2023-03-29T08:39:51.162Z,55.78
2023-03-29T08:42:17.502Z,55.90
2023-03-29T08:44:43.853Z,55.98
2023-03-29T08:47:10.199Z,55.94
2023-03-29T08:49:36.584Z,55.87
2023-03-29T08:52:02.984Z,56.53
2023-03-29T08:54:29.370Z,56.65
2023-03-29T08:56:55.797Z,54.41
2023-03-29T08:59:22.148Z,53.23
2023-03-29T09:01:48.765Z,52.62
2023-03-29T09:04:15.167Z,51.95
2023-03-29T09:06:41.521Z,50.46
2023-03-29T09:09:07.897Z,48.13
2023-03-29T09:11:34.246Z,50.19
2023-03-29T09:14:00.629Z,50.11
2023-03-29T09:16:27.078Z,50.16
2023-03-29T09:18:53.576Z,49.73
2023-03-29T09:21:19.968Z,49.77
2023-03-29T09:23:46.315Z,49.20
2023-03-29T09:26:12.702Z,50.69
2023-03-29T09:28:39.055Z,50.43
2023-03-29T09:31:05.539Z,49.34
2023-03-29T09:33:31.927Z,50.91
2023-03-29T09:35:58.370Z,52.51
2023-03-29T09:38:24.736Z,51.44
2023-03-29T09:40:51.145Z,52.25
2023-03-29T09:43:17.542Z,52.66
2023-03-29T09:45:44.030Z,52.34
2023-03-29T09:48:10.484Z,52.97
2023-03-29T09:50:36.904Z,53.17
2023-03-29T09:53:03.288Z,53.86
2023-03-29T09:55:29.652Z,54.28
2023-03-29T09:57:56.340Z,53.49
2023-03-29T10:00:22.729Z,53.60
2023-03-29T10:02:50.201Z,51.96
2023-03-29T10:05:16.578Z,53.50
2023-03-29T10:07:42.955Z,52.45
2023-03-29T10:10:09.305Z,51.55
2023-03-29T10:12:35.646Z,50.92
2023-03-29T10:15:01.973Z,51.60
2023-03-29T10:17:28.358Z,51.81
2023-03-29T10:19:54.708Z,52.50
2023-03-29T10:22:21.081Z,51.87
2023-03-29T10:24:47.512Z,51.64
2023-03-29T10:27:13.864Z,49.70
2023-03-29T10:29:40.209Z,50.86
2023-03-29T10:32:06.643Z,51.85
2023-03-29T10:34:33.069Z,51.93
2023-03-29T10:36:59.422Z,52.08
2023-03-29T10:39:25.813Z,52.91
2023-03-29T10:41:52.174Z,51.41
2023-03-29T10:44:18.561Z,53.43
2023-03-29T10:46:44.912Z,54.41
2023-03-29T10:49:11.263Z,54.27
2023-03-29T10:51:37.633Z,53.29
2023-03-29T10:54:03.999Z,52.16
2023-03-29T10:56:30.392Z,51.85
2023-03-29T10:58:56.750Z,53.70
2023-03-29T11:01:23.142Z,52.29
2023-03-29T11:03:49.605Z,52.48
2023-03-29T11:06:16.088Z,53.33
2023-03-29T11:08:42.457Z,52.56
2023-03-29T11:11:08.833Z,53.74
2023-03-29T11:13:35.180Z,52.76
2023-03-29T11:16:01.629Z,53.53
2023-03-29T11:18:28.008Z,52.21
2023-03-29T11:20:54.380Z,53.44
2023-03-29T11:23:20.731Z,52.33
2023-03-29T11:25:47.068Z,52.11
2023-03-29T11:28:13.453Z,51.32
2023-03-29T11:30:39.812Z,51.32
2023-03-29T11:33:06.229Z,52.29
2023-03-29T11:35:32.698Z,51.10
2023-03-29T11:37:59.093Z,53.39
2023-03-29T11:40:25.470Z,51.63
2023-03-29T11:42:51.828Z,53.43
2023-03-29T11:45:18.219Z,51.86
2023-03-29T11:47:44.627Z,51.97
2023-03-29T11:50:11.041Z,51.98
2023-03-29T11:52:37.431Z,52.52
2023-03-29T11:55:03.826Z,52.60
2023-03-29T11:57:30.266Z,52.76
2023-03-29T11:59:56.670Z,53.66
2023-03-29T12:02:23.071Z,52.67
2023-03-29T12:04:49.506Z,52.53
2023-03-29T12:07:15.886Z,53.16
2023-03-29T12:09:42.278Z,53.19
2023-03-29T12:12:08.625Z,52.20
2023-03-29T12:14:35.001Z,51.79
2023-03-29T12:17:01.481Z,52.11
2023-03-29T12:19:27.838Z,51.07
2023-03-29T12:21:54.220Z,50.61
2023-03-29T12:24:20.610Z,51.85
2023-03-29T12:26:47.021Z,50.17
2023-03-29T12:29:13.390Z,48.87
2023-03-29T12:31:39.790Z,51.11
2023-03-29T12:34:06.204Z,52.07
2023-03-29T12:36:32.540Z,50.50
2023-03-29T12:38:58.961Z,50.80
2023-03-29T12:41:25.305Z,51.44
2023-03-29T12:43:51.704Z,50.69
2023-03-29T12:46:18.146Z,52.71
2023-03-29T12:48:44.584Z,51.91
2023-03-29T12:51:10.941Z,51.79
2023-03-29T12:53:37.279Z,51.19
2023-03-29T12:56:03.807Z,52.49
2023-03-29T12:58:30.311Z,51.77
2023-03-29T13:00:56.720Z,50.23
2023-03-29T13:03:23.170Z,51.47
2023-03-29T13:05:49.588Z,50.53
2023-03-29T13:08:15.972Z,51.93
2023-03-29T13:10:42.380Z,51.37
2023-03-29T13:13:08.726Z,51.44
2023-03-29T13:15:35.143Z,53.57
2023-03-29T13:18:01.632Z,53.46
2023-03-29T13:20:28.060Z,50.87
2023-03-29T13:22:54.452Z,52.13
2023-03-29T13:25:20.810Z,52.71
2023-03-29T13:27:47.184Z,49.47
2023-03-29T13:30:13.568Z,50.89
2023-03-29T13:32:40.200Z,49.72
2023-03-29T13:35:06.641Z,51.13
2023-03-29T13:37:33.055Z,49.72
2023-03-29T13:39:59.444Z,49.51
2023-03-29T13:42:25.842Z,51.82
2023-03-29T13:44:52.259Z,49.78
2023-03-29T13:47:18.650Z,50.08
2023-03-29T13:49:44.994Z,48.24
2023-03-29T13:52:11.378Z,49.24
2023-03-29T13:54:37.732Z,48.75
2023-03-29T13:57:04.108Z,50.35
2023-03-29T13:59:30.490Z,49.78
2023-03-29T14:01:56.926Z,50.50
2023-03-29T14:04:23.343Z,50.00
2023-03-29T14:06:49.713Z,48.60
2023-03-29T14:09:16.042Z,47.31
2023-03-29T14:11:42.407Z,49.29
2023-03-29T14:14:08.790Z,48.32
2023-03-29T14:16:35.216Z,49.33
2023-03-29T14:19:01.657Z,48.23
2023-03-29T14:21:28.024Z,48.40
2023-03-29T14:23:54.405Z,49.03
2023-03-29T14:26:20.793Z,49.16
2023-03-29T14:28:47.167Z,48.40
2023-03-29T14:31:13.511Z,48.51
2023-03-29T14:33:39.896Z,47.66
2023-03-29T14:36:06.551Z,48.59
2023-03-29T14:38:33.165Z,48.74
2023-03-29T14:40:59.535Z,47.64
2023-03-29T14:43:25.922Z,47.76
2023-03-29T14:45:52.342Z,47.47
2023-03-29T14:48:18.748Z,49.42
2023-03-29T14:50:45.146Z,49.19
2023-03-29T14:53:11.493Z,48.01
2023-03-29T14:55:37.875Z,48.78
2023-03-29T14:58:04.259Z,50.35
2023-03-29T15:00:30.612Z,49.50
2023-03-29T15:02:57.139Z,48.44
2023-03-29T15:05:25.452Z,48.12
2023-03-29T15:07:51.997Z,48.00
2023-03-29T15:10:18.354Z,48.28
2023-03-29T15:12:44.752Z,48.99
2023-03-29T15:15:11.144Z,48.02
2023-03-29T15:17:50.197Z,49.28
2023-03-29T15:20:18.364Z,50.08
2023-03-29T15:22:44.709Z,49.33
2023-03-29T15:25:11.100Z,48.76
2023-03-29T15:27:37.445Z,49.68
2023-03-29T15:30:03.839Z,50.36
2023-03-29T15:32:30.280Z,50.40
2023-03-29T15:34:56.674Z,49.59
2023-03-29T15:37:23.073Z,50.12
2023-03-29T15:39:49.573Z,50.91
2023-03-29T15:42:15.922Z,49.29
2023-03-29T15:44:42.303Z,50.34
2023-03-29T15:47:08.704Z,48.85
2023-03-29T15:49:35.136Z,48.48
2023-03-29T15:52:01.486Z,49.47
2023-03-29T15:54:27.869Z,49.45
2023-03-29T15:56:54.365Z,48.15
2023-03-29T15:59:20.811Z,48.34
2023-03-29T16:01:47.254Z,48.37
2023-03-29T16:04:13.627Z,48.68
2023-03-29T16:06:39.979Z,49.81
2023-03-29T16:09:06.377Z,48.41
2023-03-29T16:11:32.732Z,48.31
2023-03-29T16:13:59.101Z,49.34
2023-03-29T16:16:25.708Z,50.02
2023-03-29T16:18:52.105Z,49.69
2023-03-29T16:21:18.506Z,49.62
2023-03-29T16:23:44.894Z,48.06
2023-03-29T16:26:11.242Z,49.01
2023-03-29T16:28:37.617Z,48.26
2023-03-29T16:31:04.002Z,48.52
2023-03-29T16:33:30.588Z,48.18
2023-03-29T16:35:56.999Z,48.70
2023-03-29T16:38:23.397Z,48.03
2023-03-29T16:40:49.734Z,50.04
2023-03-29T16:43:16.116Z,49.92
2023-03-29T16:45:42.561Z,49.32
2023-03-29T16:48:09.002Z,51.19
2023-03-29T16:50:35.407Z,51.12
2023-03-29T16:53:01.786Z,52.73
2023-03-29T16:55:28.121Z,51.86
2023-03-29T16:57:54.496Z,52.12
2023-03-29T17:00:20.874Z,54.06
2023-03-29T17:02:47.278Z,54.55
2023-03-29T17:05:13.657Z,53.71
2023-03-29T17:07:39.992Z,52.69
2023-03-29T17:10:06.342Z,53.85
2023-03-29T17:12:32.682Z,54.09
2023-03-29T17:14:59.031Z,55.93
2023-03-29T17:17:25.455Z,54.79
2023-03-29T17:19:51.849Z,52.25
2023-03-29T17:22:18.237Z,53.15
2023-03-29T17:24:44.626Z,53.24
2023-03-29T17:27:11.033Z,54.16
2023-03-29T17:29:37.426Z,53.65
2023-03-29T17:32:03.822Z,52.28
2023-03-29T17:34:30.287Z,51.97
2023-03-29T17:36:56.643Z,54.95
2023-03-29T17:39:23.027Z,55.34
2023-03-29T17:41:49.404Z,56.58
2023-03-29T17:44:16.020Z,56.04
2023-03-29T17:46:42.531Z,56.11
2023-03-29T17:49:08.925Z,54.86
2023-03-29T17:51:35.377Z,55.10
2023-03-29T17:54:01.771Z,55.05
2023-03-29T17:56:28.142Z,56.33
2023-03-29T17:58:54.476Z,56.41
2023-03-29T18:01:20.935Z,55.11
2023-03-29T18:03:47.365Z,56.58
2023-03-29T18:06:13.742Z,54.87
2023-03-29T18:08:40.087Z,53.68
2023-03-29T18:11:06.418Z,53.52
2023-03-29T18:13:32.785Z,52.94
2023-03-29T18:15:59.133Z,54.05
2023-03-29T18:18:25.471Z,54.42
2023-03-29T18:20:51.789Z,53.89
2023-03-29T18:23:18.220Z,56.06
2023-03-29T18:25:44.592Z,56.24
2023-03-29T18:28:10.976Z,56.31
2023-03-29T18:30:37.329Z,56.12
2023-03-29T18:33:03.778Z,53.81
2023-03-29T18:35:30.221Z,52.95
2023-03-29T18:37:56.590Z,54.32
2023-03-29T18:40:22.972Z,52.90
2023-03-29T18:42:49.376Z,54.16
2023-03-29T18:45:15.723Z,55.03
2023-03-29T18:47:42.121Z,54.39
2023-03-29T18:50:08.542Z,54.00
2023-03-29T18:52:34.897Z,53.59
2023-03-29T18:55:01.233Z,53.62
2023-03-29T18:57:27.637Z,54.15
2023-03-29T18:59:54.054Z,53.88
2023-03-29T19:02:20.535Z,53.39
2023-03-29T19:04:46.940Z,53.68
2023-03-29T19:07:13.309Z,53.82
2023-03-29T19:09:39.726Z,55.22
2023-03-29T19:12:06.078Z,54.20
2023-03-29T19:14:32.412Z,54.95
2023-03-29T19:16:58.964Z,54.72
2023-03-29T19:19:25.368Z,54.63
2023-03-29T19:21:51.759Z,54.26
2023-03-29T19:24:18.141Z,55.53
2023-03-29T19:26:44.598Z,55.49
2023-03-29T19:29:11.024Z,56.41
2023-03-29T19:31:37.399Z,56.58
2023-03-29T19:34:03.747Z,55.99
2023-03-29T19:36:30.127Z,56.15
2023-03-29T19:38:56.513Z,57.87
2023-03-29T19:41:22.852Z,56.67
2023-03-29T19:43:49.255Z,55.44
2023-03-29T19:46:15.796Z,55.31
2023-03-29T19:48:42.307Z,55.58
2023-03-29T19:51:08.783Z,55.67
2023-03-29T19:53:38.421Z,55.86
2023-03-29T19:56:05.485Z,56.06
2023-03-29T19:58:31.938Z,54.68
2023-03-29T20:00:58.296Z,54.62
2023-03-29T20:03:24.678Z,56.70
2023-03-29T20:05:51.049Z,54.96
2023-03-29T20:08:17.409Z,55.84
2023-03-29T20:10:43.779Z,56.50
2023-03-29T20:13:10.161Z,56.92
2023-03-29T20:15:36.520Z,57.53
2023-03-29T20:18:03.014Z,57.52
2023-03-29T20:20:29.398Z,57.01
2023-03-29T20:22:55.734Z,57.40
2023-03-29T20:25:22.078Z,58.47
2023-03-29T20:27:48.428Z,57.43
2023-03-29T20:30:14.775Z,58.13
2023-03-29T20:32:41.188Z,58.19
2023-03-29T20:35:07.606Z,58.88
2023-03-29T20:37:33.974Z,58.49
2023-03-29T20:40:00.354Z,58.56
2023-03-29T20:42:26.758Z,58.62
2023-03-29T20:44:53.145Z,58.50
2023-03-29T20:47:19.535Z,58.58
2023-03-29T20:49:45.916Z,58.28
2023-03-29T20:52:12.277Z,57.75
2023-03-29T20:54:38.756Z,56.88
2023-03-29T20:57:05.295Z,57.63
2023-03-29T20:59:31.707Z,57.70
2023-03-29T21:01:58.153Z,58.45
2023-03-29T21:04:24.598Z,57.23
2023-03-29T21:06:50.962Z,57.20
2023-03-29T21:09:17.364Z,57.50
2023-03-29T21:11:43.719Z,57.61
2023-03-29T21:14:10.127Z,58.10
2023-03-29T21:16:36.562Z,56.99
2023-03-29T21:19:02.922Z,55.46
2023-03-29T21:21:29.270Z,55.00
2023-03-29T21:23:55.639Z,54.80
2023-03-29T21:26:22.040Z,57.08
2023-03-29T21:28:48.392Z,54.10
2023-03-29T21:31:14.861Z,54.62
2023-03-29T21:33:41.275Z,54.35
2023-03-29T21:36:07.674Z,54.00
2023-03-29T21:38:34.081Z,53.53
2023-03-29T21:41:00.643Z,54.71
2023-03-29T21:43:27.271Z,54.77
2023-03-29T21:45:53.706Z,54.77
2023-03-29T21:48:20.045Z,55.93
2023-03-29T21:50:46.442Z,56.24
2023-03-29T21:53:12.825Z,56.76
2023-03-29T21:55:39.182Z,57.89
2023-03-29T21:58:05.581Z,57.95
2023-03-29T22:00:31.998Z,57.74
2023-03-29T22:02:58.443Z,58.84
2023-03-29T22:05:24.874Z,58.06
2023-03-29T22:07:51.220Z,59.25
2023-03-29T22:10:17.569Z,58.44
2023-03-29T22:12:43.907Z,58.68
2023-03-29T22:15:10.283Z,59.20
2023-03-29T22:17:36.689Z,59.17
2023-03-29T22:20:03.106Z,58.18
2023-03-29T22:22:29.474Z,58.36
2023-03-29T22:24:55.851Z,57.86
2023-03-29T22:27:22.252Z,57.79
2023-03-29T22:29:48.646Z,59.08
2023-03-29T22:32:15.121Z,57.90
2023-03-29T22:34:41.574Z,58.23
2023-03-29T22:37:07.947Z,58.29
2023-03-29T22:39:34.329Z,58.31
2023-03-29T22:42:00.731Z,58.25
2023-03-29T22:44:27.138Z,58.67
2023-03-29T22:46:53.533Z,58.99
2023-03-29T22:49:19.889Z,58.58
2023-03-29T22:51:46.280Z,57.83
2023-03-29T22:54:12.682Z,59.38
2023-03-29T22:56:39.077Z,58.91
2023-03-29T22:59:05.516Z,57.96
2023-03-29T23:01:31.923Z,59.14
2023-03-29T23:03:58.353Z,59.15
2023-03-29T23:06:24.754Z,60.26
2023-03-29T23:08:51.152Z,60.30
2023-03-29T23:11:17.544Z,59.18
2023-03-29T23:13:43.938Z,59.20
2023-03-29T23:16:10.343Z,59.78
2023-03-29T23:18:36.731Z,58.19
2023-03-29T23:21:03.344Z,57.68
2023-03-29T23:23:29.958Z,56.99
2023-03-29T23:25:56.338Z,58.09
2023-03-29T23:28:22.698Z,57.16
2023-03-29T23:30:49.126Z,57.17
2023-03-29T23:33:15.488Z,57.10
2023-03-29T23:35:41.883Z,56.87
2023-03-29T23:38:08.283Z,56.83
2023-03-29T23:40:34.634Z,57.06
2023-03-29T23:43:01.014Z,56.35
2023-03-29T23:45:27.361Z,56.08
2023-03-29T23:47:53.774Z,56.30
2023-03-29T23:50:20.142Z,57.00
2023-03-29T23:52:46.478Z,57.83
2023-03-29T23:55:12.877Z,57.59
2023-03-29T23:57:39.229Z,57.71
